This is the latest recevied weather packets stored in our database for station/object SR2CPA-13. If no packets are shown the sender has not sent any weather packets the latest 10 day(s).
| Time | Temp. | Humidity | Pressure | Rain* | Wind** | Luminosity | Snow |
|---|---|---|---|---|---|---|---|
| 1777550888 | 15° C | 45% | 0 hPa | 0 mm | - | - | - |
| 1777550268 | 15° C | 47% | 0 hPa | 0 mm | - | - | - |
| 1777549648 | 15° C | 47% | 0 hPa | 0 mm | - | - | - |
| 1777549048 | 15° C | 46% | 0 hPa | 0 mm | - | - | - |
| 1777548428 | 15° C | 46% | 0 hPa | 0 mm | - | - | - |
| 1777547828 | 15° C | 45% | 0 hPa | 0 mm | - | - | - |
| 1777547228 | 15.56° C | 42% | 0 hPa | 0 mm | - | - | - |
| 1777546628 | 15.56° C | 43% | 0 hPa | 0 mm | - | - | - |
| 1777546028 | 16.67° C | 41% | 0 hPa | 0 mm | - | - | - |
| 1777545408 | 16.11° C | 41% | 0 hPa | 0 mm | - | - | - |
| 1777544807 | 15.56° C | 42% | 0 hPa | 0 mm | - | - | - |
| 1777544208 | 14.44° C | 45% | 0 hPa | 0 mm | - | - | - |
| 1777543608 | 13.89° C | 44% | 0 hPa | 0 mm | - | - | - |
| 1777542988 | 15° C | 43% | 0 hPa | 0 mm | - | - | - |
| 1777541767 | 13.89° C | 45% | 0 hPa | 0 mm | - | - | - |
| 1777541149 | 13.33° C | 48% | 0 hPa | 0 mm | - | - | - |
| 1777540547 | 12.78° C | 48% | 0 hPa | 0 mm | - | - | - |
| 1777539947 | 12.22° C | 51% | 0 hPa | 0 mm | - | - | - |
| 1777539347 | 11.67° C | 50% | 0 hPa | 0 mm | - | - | - |
| 1777538747 | 11.67° C | 49% | 0 hPa | 0 mm | - | - | - |
| 1777538127 | 11.11° C | 50% | 0 hPa | 0 mm | - | - | - |
| 1777537527 | 11.11° C | 45% | 0 hPa | 0 mm | - | - | - |
| 1777536908 | 10.56° C | 49% | 0 hPa | 0 mm | - | - | - |
| 1777536267 | 10° C | 52% | 0 hPa | 0 mm | - | - | - |
| 1777535667 | 8.89° C | 51% | 0 hPa | 0 mm | - | - | - |
* Rain latest hour (hover to see other rain measurements)
** Current wind speed in m/s (hover to see current wind gust speed)